createdAt,value
2022-09-22T00:03:14.779Z,102040.47
2022-09-22T00:07:16.187Z,102035.13
2022-09-22T00:11:20.526Z,102029.88
2022-09-22T00:15:21.982Z,102021.88
2022-09-22T00:19:26.564Z,102021.53
2022-09-22T00:23:29.039Z,102016.03
2022-09-22T00:27:30.451Z,102015.09
2022-09-22T00:31:31.989Z,102018.69
2022-09-22T00:35:33.422Z,102017.53
2022-09-22T00:39:35.107Z,102017.72
2022-09-22T00:43:38.565Z,102010.53
2022-09-22T00:47:44.667Z,102010.69
2022-09-22T00:51:46.098Z,102018.03
2022-09-22T00:55:53.607Z,102017.09
2022-09-22T00:59:55.507Z,102010.47
2022-09-22T01:03:57.423Z,102014.88
2022-09-22T01:07:59.710Z,102008.69
2022-09-22T01:12:02.845Z,102007.38
2022-09-22T01:16:20.892Z,102004.59
2022-09-22T01:21:02.398Z,102006.69
2022-09-22T01:25:15.073Z,102008.25
2022-09-22T01:29:35.058Z,102000.06
2022-09-22T01:33:42.723Z,102002.66
2022-09-22T01:38:09.641Z,101999.13
2022-09-22T01:42:19.561Z,101997.78
2022-09-22T01:46:42.838Z,102005.28
2022-09-22T01:50:53.152Z,102001.22
2022-09-22T01:55:25.760Z,101999.53
2022-09-22T01:59:30.656Z,101994.91
2022-09-22T02:03:41.546Z,101996.63
2022-09-22T02:07:48.718Z,101997.50
2022-09-22T02:11:50.233Z,102003.25
2022-09-22T02:16:01.292Z,101995.66
2022-09-22T02:20:05.875Z,102001.84
2022-09-22T02:24:07.980Z,102006.22
2022-09-22T02:28:12.774Z,102006.09
2022-09-22T02:32:17.067Z,101998.13
2022-09-22T02:36:37.573Z,101998.19
2022-09-22T02:40:57.204Z,101997.09
2022-09-22T02:45:04.709Z,101997.75
2022-09-22T02:49:11.793Z,101996.91
2022-09-22T02:53:17.069Z,101999.31
2022-09-22T02:57:18.485Z,101993.97
2022-09-22T03:01:19.919Z,101989.97
2022-09-22T03:05:21.286Z,102002.84
2022-09-22T03:09:22.654Z,101992.66
2022-09-22T03:13:24.128Z,101989.31
2022-09-22T03:17:25.517Z,101994.38
2022-09-22T03:21:26.947Z,101996.38
2022-09-22T03:25:28.364Z,102000.31
2022-09-22T03:29:29.800Z,101994.91
2022-09-22T03:33:31.237Z,101996.81
2022-09-22T03:37:34.414Z,101995.22
2022-09-22T03:41:35.851Z,101997.75
2022-09-22T03:45:40.232Z,101995.88
2022-09-22T03:49:41.726Z,101992.66
2022-09-22T03:53:43.099Z,101991.91
2022-09-22T03:57:44.524Z,101990.38
2022-09-22T04:01:45.964Z,101985.13
2022-09-22T04:05:51.356Z,101982.59
2022-09-22T04:09:53.045Z,101974.25
2022-09-22T04:13:54.485Z,101982.44
2022-09-22T04:17:57.420Z,101987.13
2022-09-22T04:21:58.803Z,101997.25
2022-09-22T04:26:01.429Z,101987.28
2022-09-22T04:30:03.088Z,101988.22
2022-09-22T04:34:07.596Z,101987.03
2022-09-22T04:38:10.610Z,101988.47
2022-09-22T04:42:12.044Z,101989.56
2022-09-22T04:46:17.926Z,101979.09
2022-09-22T04:50:22.611Z,101986.47
2022-09-22T04:54:24.013Z,101982.22
2022-09-22T04:58:25.385Z,101988.50
2022-09-22T05:02:26.747Z,101989.00
2022-09-22T05:06:28.200Z,101985.53
2022-09-22T05:10:32.203Z,101991.31
2022-09-22T05:14:35.121Z,101996.84
2022-09-22T05:18:36.834Z,101994.09
2022-09-22T05:22:40.147Z,101994.59
2022-09-22T05:26:41.581Z,101994.84
2022-09-22T05:30:43.752Z,101994.03
2022-09-22T05:34:45.152Z,101996.66
2022-09-22T05:38:46.501Z,102000.06
2022-09-22T05:42:49.763Z,101999.00
2022-09-22T05:46:51.210Z,101998.19
2022-09-22T05:50:52.573Z,102008.78
2022-09-22T05:54:54.015Z,102012.69
2022-09-22T05:58:55.396Z,102012.25
2022-09-22T06:02:56.966Z,102018.00
2022-09-22T06:06:59.579Z,102011.69
2022-09-22T06:11:01.055Z,102010.50
2022-09-22T06:15:02.489Z,102017.31
2022-09-22T06:19:04.156Z,102011.41
2022-09-22T06:23:05.572Z,102018.19
2022-09-22T06:27:06.948Z,102019.75
2022-09-22T06:31:08.325Z,102019.06
2022-09-22T06:35:10.150Z,102020.44
2022-09-22T06:39:13.016Z,102024.44
2022-09-22T06:43:20.749Z,102013.88
2022-09-22T06:47:22.208Z,102021.91
2022-09-22T06:51:26.640Z,102009.38
2022-09-22T06:55:29.465Z,102013.94
2022-09-22T06:59:30.834Z,102017.06
2022-09-22T07:03:33.133Z,102019.13
2022-09-22T07:07:34.695Z,102011.59
2022-09-22T07:11:39.856Z,102015.78
2022-09-22T07:15:41.897Z,102018.75
2022-09-22T07:19:43.486Z,102019.00
2022-09-22T07:23:45.005Z,102024.06
2022-09-22T07:27:46.417Z,102025.75
2022-09-22T07:31:47.845Z,102016.25
2022-09-22T07:35:49.531Z,102020.25
2022-09-22T07:39:50.907Z,102022.00
2022-09-22T07:43:54.040Z,102021.09
2022-09-22T07:48:14.068Z,102019.16
2022-09-22T07:52:16.037Z,102021.50
2022-09-22T07:56:21.117Z,102025.16
2022-09-22T08:00:24.466Z,102028.25
2022-09-22T08:04:26.805Z,102028.81
2022-09-22T08:08:30.120Z,102029.78
2022-09-22T08:12:32.323Z,102026.16
2022-09-22T08:16:39.896Z,102032.91
2022-09-22T08:20:45.058Z,102035.31
2022-09-22T08:24:46.663Z,102038.69
2022-09-22T08:28:52.785Z,102034.72
2022-09-22T08:32:54.288Z,102031.06
2022-09-22T08:36:56.087Z,102036.00
2022-09-22T08:41:19.408Z,102041.91
2022-09-22T08:45:38.467Z,102047.97
2022-09-22T08:50:05.710Z,102040.84
2022-09-22T08:54:08.617Z,102033.28
2022-09-22T08:58:38.902Z,102041.69
2022-09-22T09:02:49.221Z,102038.00
2022-09-22T09:07:15.955Z,102042.59
2022-09-22T09:11:40.853Z,102033.34
2022-09-22T09:16:01.802Z,102027.72
2022-09-22T09:20:17.555Z,102027.00
2022-09-22T09:29:05.845Z,102034.81
2022-09-22T09:33:29.919Z,102027.50
2022-09-22T09:37:32.254Z,102021.84
2022-09-22T09:41:35.430Z,102027.00
2022-09-22T09:45:41.349Z,102029.13
2022-09-22T09:49:43.958Z,102019.78
2022-09-22T09:53:47.552Z,102019.91
2022-09-22T09:58:04.475Z,102017.31
2022-09-22T10:02:14.978Z,102020.63
2022-09-22T10:06:24.488Z,102027.22
2022-09-22T10:10:29.004Z,102015.56
2022-09-22T10:14:33.821Z,102020.38
2022-09-22T10:18:40.436Z,102025.19
2022-09-22T10:22:42.643Z,102018.66
2022-09-22T10:26:55.926Z,102019.34
2022-09-22T10:31:00.111Z,102023.16
2022-09-22T10:35:29.255Z,102016.97
2022-09-22T10:39:35.644Z,102015.66
2022-09-22T10:43:55.373Z,102003.84
2022-09-22T10:47:57.917Z,102007.63
2022-09-22T10:52:23.854Z,102012.16
2022-09-22T10:56:39.393Z,102010.38
2022-09-22T11:00:42.345Z,102013.84
2022-09-22T11:05:42.505Z,102010.13
2022-09-22T11:10:17.009Z,101999.94
2022-09-22T11:14:27.655Z,101994.44
2022-09-22T11:18:39.824Z,101993.19
2022-09-22T11:22:56.651Z,101995.03
2022-09-22T11:27:01.332Z,101980.34
2022-09-22T11:31:03.040Z,101989.13
2022-09-22T11:35:22.783Z,101981.91
2022-09-22T11:40:00.118Z,101983.38
2022-09-22T11:44:04.510Z,101969.44
2022-09-22T11:48:20.427Z,101969.75
2022-09-22T11:52:45.614Z,101972.97
2022-09-22T11:56:51.720Z,101966.22
2022-09-22T12:00:59.905Z,101964.69
2022-09-22T12:05:10.791Z,101954.66
2022-09-22T12:09:23.959Z,101956.41
2022-09-22T12:13:28.688Z,101948.25
2022-09-22T12:17:39.361Z,101940.63
2022-09-22T12:21:58.017Z,101942.53
2022-09-22T12:26:07.197Z,101929.44
2022-09-22T12:30:21.686Z,101932.66
2022-09-22T12:34:29.407Z,101923.25
2022-09-22T12:38:31.665Z,101921.78
2022-09-22T12:42:35.758Z,101920.50
2022-09-22T12:46:43.182Z,101919.47
2022-09-22T12:50:45.850Z,101925.50
2022-09-22T12:54:47.795Z,101931.88
2022-09-22T12:58:49.376Z,101923.19
2022-09-22T13:02:51.056Z,101913.97
2022-09-22T13:06:55.088Z,101914.56
2022-09-22T13:11:05.133Z,101922.63
2022-09-22T13:15:06.501Z,101923.72
2022-09-22T13:19:10.204Z,101912.28
2022-09-22T13:23:12.978Z,101910.44
2022-09-22T13:27:14.674Z,101909.53
2022-09-22T13:31:17.742Z,101906.13
2022-09-22T13:35:31.257Z,101899.81
2022-09-22T13:39:37.970Z,101902.97
2022-09-22T13:43:43.424Z,101897.78
2022-09-22T13:47:46.953Z,101891.59
2022-09-22T13:51:54.923Z,101888.34
2022-09-22T13:55:57.256Z,101883.63
2022-09-22T14:00:02.047Z,101871.50
2022-09-22T14:04:04.085Z,101873.09
2022-09-22T14:08:12.847Z,101874.66
2022-09-22T14:12:17.322Z,101868.16
2022-09-22T14:16:27.818Z,101869.13
2022-09-22T14:20:29.258Z,101869.06
2022-09-22T14:24:37.668Z,101867.59
2022-09-22T14:28:41.370Z,101866.84
2022-09-22T14:32:49.439Z,101859.88
2022-09-22T14:36:52.521Z,101861.59
2022-09-22T14:40:55.877Z,101862.41
2022-09-22T14:45:09.531Z,101854.22
2022-09-22T14:49:36.413Z,101858.03
2022-09-22T14:53:45.719Z,101851.47
2022-09-22T14:57:49.488Z,101852.88
2022-09-22T15:02:14.335Z,101849.22
2022-09-22T15:06:15.756Z,101847.75
2022-09-22T15:10:27.885Z,101844.41
2022-09-22T15:14:41.786Z,101840.97
2022-09-22T15:18:43.132Z,101830.50
2022-09-22T15:22:46.274Z,101836.25
2022-09-22T15:26:47.825Z,101826.84
2022-09-22T15:30:51.256Z,101833.47
2022-09-22T15:34:54.974Z,101821.28
2022-09-22T15:39:21.610Z,101830.03
2022-09-22T15:43:29.255Z,101821.56
2022-09-22T15:47:30.643Z,101829.16
2022-09-22T15:51:32.868Z,101819.69
2022-09-22T15:55:34.247Z,101817.81
2022-09-22T15:59:36.872Z,101815.78
2022-09-22T16:03:41.219Z,101822.38
2022-09-22T16:07:46.486Z,101818.84
2022-09-22T16:11:48.508Z,101812.09
2022-09-22T16:15:50.405Z,101817.34
2022-09-22T16:19:51.870Z,101810.66
2022-09-22T16:23:54.854Z,101808.97
2022-09-22T16:27:56.710Z,101801.72
2022-09-22T16:31:58.674Z,101798.91
2022-09-22T16:36:00.132Z,101802.50
2022-09-22T16:40:01.960Z,101801.16
2022-09-22T16:44:04.947Z,101801.97
2022-09-22T16:48:07.106Z,101801.94
2022-09-22T16:52:10.564Z,101803.09
2022-09-22T16:56:11.942Z,101800.47
2022-09-22T17:00:13.875Z,101804.69
2022-09-22T17:04:18.483Z,101798.69
2022-09-22T17:08:20.983Z,101798.69
2022-09-22T17:12:23.125Z,101804.63
2022-09-22T17:16:33.573Z,101807.75
2022-09-22T17:20:39.067Z,101809.59
2022-09-22T17:24:40.478Z,101810.59
2022-09-22T17:28:41.947Z,101806.91
2022-09-22T17:32:43.362Z,101804.38
2022-09-22T17:36:45.185Z,101800.97
2022-09-22T17:40:46.843Z,101801.28
2022-09-22T17:44:48.441Z,101798.03
2022-09-22T17:49:08.480Z,101806.59
2022-09-22T17:53:28.193Z,101796.44
2022-09-22T17:57:31.792Z,101794.00
2022-09-22T18:01:33.184Z,101793.06
2022-09-22T18:05:38.589Z,101793.22
2022-09-22T18:09:43.653Z,101798.75
2022-09-22T18:13:45.237Z,101791.25
2022-09-22T18:17:46.669Z,101801.44
2022-09-22T18:21:48.101Z,101800.09
2022-09-22T18:25:51.174Z,101792.94
2022-09-22T18:29:58.419Z,101800.78
2022-09-22T18:33:59.788Z,101792.59
2022-09-22T18:38:01.197Z,101794.94
2022-09-22T18:42:02.645Z,101792.72
2022-09-22T18:46:07.206Z,101789.91
2022-09-22T18:50:09.746Z,101791.91
2022-09-22T18:54:15.287Z,101793.13
2022-09-22T18:58:17.860Z,101791.16
2022-09-22T19:02:22.981Z,101792.53
2022-09-22T19:06:24.783Z,101791.00
2022-09-22T19:10:26.290Z,101791.38
2022-09-22T19:14:28.277Z,101790.25
2022-09-22T19:18:29.680Z,101801.84
2022-09-22T19:22:31.160Z,101792.38
2022-09-22T19:26:32.719Z,101797.09
2022-09-22T19:30:34.694Z,101798.75
2022-09-22T19:34:36.251Z,101804.09
2022-09-22T19:38:37.620Z,101799.88
2022-09-22T19:42:40.418Z,101801.66
2022-09-22T19:46:43.353Z,101796.88
2022-09-22T19:50:46.868Z,101787.94
2022-09-22T19:54:48.411Z,101785.84
2022-09-22T19:58:52.044Z,101777.38
2022-09-22T20:02:59.789Z,101778.03
2022-09-22T20:07:01.657Z,101783.22
2022-09-22T20:11:23.034Z,101781.72
2022-09-22T20:15:25.579Z,101775.31
2022-09-22T20:19:28.971Z,101784.34
2022-09-22T20:23:30.442Z,101786.16
2022-09-22T20:27:34.405Z,101782.22
2022-09-22T20:31:36.318Z,101780.31
2022-09-22T20:35:38.149Z,101777.53
2022-09-22T20:39:39.738Z,101780.94
2022-09-22T20:43:41.181Z,101785.84
2022-09-22T20:47:42.612Z,101776.69
2022-09-22T20:51:44.085Z,101784.94
2022-09-22T20:55:58.503Z,101781.72
2022-09-22T21:00:01.135Z,101782.44
2022-09-22T21:04:02.560Z,101780.81
2022-09-22T21:08:22.663Z,101781.63
2022-09-22T21:12:30.685Z,101774.34
2022-09-22T21:16:35.506Z,101777.47
2022-09-22T21:20:39.568Z,101776.38
2022-09-22T21:24:45.638Z,101777.16
2022-09-22T21:28:50.041Z,101767.59
2022-09-22T21:32:51.480Z,101769.81
2022-09-22T21:36:52.915Z,101774.38
2022-09-22T21:40:57.716Z,101778.09
2022-09-22T21:44:59.326Z,101773.69
2022-09-22T21:49:03.209Z,101769.94
2022-09-22T21:53:04.587Z,101768.88
2022-09-22T21:57:06.027Z,101778.91
2022-09-22T22:01:13.468Z,101770.25
2022-09-22T22:05:15.196Z,101779.78
2022-09-22T22:09:21.556Z,101775.03
2022-09-22T22:13:22.922Z,101774.84
2022-09-22T22:17:24.285Z,101772.63
2022-09-22T22:21:28.878Z,101768.00
2022-09-22T22:25:30.251Z,101768.44
2022-09-22T22:29:34.558Z,101758.44
2022-09-22T22:33:37.831Z,101761.31
2022-09-22T22:37:39.879Z,101760.53
2022-09-22T22:41:41.527Z,101752.66
2022-09-22T22:45:47.642Z,101753.13
2022-09-22T22:49:49.059Z,101756.13
2022-09-22T22:53:51.883Z,101758.31
2022-09-22T22:57:56.234Z,101751.16
2022-09-22T23:01:57.639Z,101752.09
2022-09-22T23:06:00.124Z,101754.97
2022-09-22T23:10:07.239Z,101750.16
2022-09-22T23:14:11.226Z,101748.63
2022-09-22T23:18:13.971Z,101760.69
2022-09-22T23:22:17.840Z,101760.00
2022-09-22T23:26:19.259Z,101751.53
2022-09-22T23:30:20.652Z,101737.25
2022-09-22T23:34:22.111Z,101738.16
2022-09-22T23:38:26.375Z,101736.94
2022-09-22T23:42:27.853Z,101731.59
2022-09-22T23:46:29.339Z,101729.69
2022-09-22T23:50:30.914Z,101726.22
2022-09-22T23:54:32.781Z,101723.47
2022-09-22T23:58:35.202Z,101714.09
